Terminal Aerodrome Forecast
Issued by NWS

Current Version | Previous Version | Graphics & Text | Print | Product List | Glossary On
Versions: 1 2 3 4 5 6 7 8 9 10 11 12 13 14 15 16 17 18 19
000
FTUS41 KILN 120541
TAFLUK
TAF
KLUK 120541Z 1206/1306 28012G20KT P6SM BKN050
     FM120800 30014G22KT P6SM OVC018
     FM121100 30015G27KT P6SM VCSH OVC022
     FM121600 31015G25KT P6SM BKN040
     FM122300 30012KT P6SM SCT040
     FM130300 28007KT P6SM SKC=

USA.gov is the U.S. government's official web portal to all federal, state and local government web resources and services.